Airfield :
LOGIN :

Register | Disclaimer

   EN    FR    IT 

 










Legend :    VFR   Marginal VFR   IFR   Intensive IFR   Very Intensive IFR
Visi :
Ceiling :
>= 8 km
>= 3000ft
5 to 8 km
1000 to 3000 ft
1500m to 5 km
500 to 1000 ft
800 to 1500m
200 to 500 ft
< 800m
< 200 ft
Symbols :   Thunderstorms  Fog  Heavy snow  Heavy precipitations  Wind > 20 kt
SIGMETs :     Misc.  Thunderstorms  Icing  Turbulence  Mountain Waves  Volcanic Ashes






- Airport Elevation : 172 ft
- IATA code : ODS


UKOO - Odesa

CURRENT METAR :
  • 210000Z 07003MPS 7000 OVC006 04/02 Q1021 R34/090060 NOSIG

EXPIRED METARs :
  • 202330Z 07003MPS 7000 OVC006 04/02 Q1021 R34/090060 NOSIG
  • 202300Z 08004MPS 060V120 7000 OVC006 04/02 Q1021 R34/090060 NOSIG
  • 202230Z 08004MPS 7000 OVC006 04/03 Q1021 R34/090060 NOSIG
  • 202200Z 07005MPS 7000 OVC006 04/03 Q1021 R34/090060 NOSIG
  • 202130Z 07005MPS 7000 OVC006 04/03 Q1021 R34/090060 NOSIG

TAF TAF UKOO
Valid from the 21 at 00:00 until the 22 at 00:00 UTC


202311Z 2100/2124 04003MPS 2100 BR BKN005 SCT015CB TX06/2112Z TN00/2105Z
TEMPO 2100/2106 08003MPS 0400 FG VV002
BECMG 2106/2107 6000 NSW BKN007 SCT015CB
BECMG 2115/2116 2100 BR
PROB40
TEMPO 2116/2124 0400 FG VV002



MET'MAP, your aeronautical weather chart ! - Copyright ORBIFLY December 2007 - Disclaimer

ORBIFLY MET'MAP TEAM :

Programming & Development : Alexandra Zaïnal
Concept & original design : Baudouin d'Aumeries
Assistance for programming : Marc-Olivier Méhu
Technical & hardware support : Manuel Goepfert

Contact : metmap@orbifly.com




SOURCES & CREDITS :

   NOAA